sensor_id;sensor_type;location;lat;lon;timestamp;pressure;altitude;pressure_sealevel;temperature;humidity
68594;BME280;55563;52.416;13.548;2022-11-18T00:01:40;99934.69;;;1.03;100.00
68594;BME280;55563;52.416;13.548;2022-11-18T00:03:47;99942.31;;;0.98;100.00
68594;BME280;55563;52.416;13.548;2022-11-18T00:09:42;99927.00;;;0.97;100.00
68594;BME280;55563;52.416;13.548;2022-11-18T00:11:48;99927.00;;;0.97;100.00
68594;BME280;55563;52.416;13.548;2022-11-18T00:14:17;99918.06;;;0.93;100.00
68594;BME280;55563;52.416;13.548;2022-11-18T00:16:41;99918.88;;;0.93;100.00
68594;BME280;55563;52.416;13.548;2022-11-18T00:18:45;99924.84;;;0.94;100.00
68594;BME280;55563;52.416;13.548;2022-11-18T00:20:52;99930.84;;;0.87;100.00
68594;BME280;55563;52.416;13.548;2022-11-18T00:22:59;99917.13;;;0.87;100.00
68594;BME280;55563;52.416;13.548;2022-11-18T00:25:26;99921.47;;;0.93;100.00
68594;BME280;55563;52.416;13.548;2022-11-18T00:27:30;99923.09;;;0.87;100.00
68594;BME280;55563;52.416;13.548;2022-11-18T00:29:36;99915.94;;;0.90;100.00
68594;BME280;55563;52.416;13.548;2022-11-18T00:31:44;99919.72;;;0.87;100.00
68594;BME280;55563;52.416;13.548;2022-11-18T00:33:52;99926.28;;;0.90;100.00
68594;BME280;55563;52.416;13.548;2022-11-18T00:35:57;99926.69;;;0.86;100.00
68594;BME280;55563;52.416;13.548;2022-11-18T00:38:04;99927.88;;;0.91;100.00
68594;BME280;55563;52.416;13.548;2022-11-18T00:40:09;99945.59;;;0.87;100.00
68594;BME280;55563;52.416;13.548;2022-11-18T00:42:16;99934.66;;;0.85;100.00
68594;BME280;55563;52.416;13.548;2022-11-18T00:44:44;99929.84;;;0.88;100.00
68594;BME280;55563;52.416;13.548;2022-11-18T00:46:51;99933.44;;;0.87;100.00
68594;BME280;55563;52.416;13.548;2022-11-18T00:48:58;99940.63;;;0.85;100.00
68594;BME280;55563;52.416;13.548;2022-11-18T00:51:13;99940.03;;;0.83;100.00
68594;BME280;55563;52.416;13.548;2022-11-18T00:53:22;99934.31;;;0.81;100.00
68594;BME280;55563;52.416;13.548;2022-11-18T00:55:30;99934.50;;;0.80;100.00
68594;BME280;55563;52.416;13.548;2022-11-18T00:57:35;99940.69;;;0.79;100.00
68594;BME280;55563;52.416;13.548;2022-11-18T00:59:41;99939.88;;;0.78;100.00
68594;BME280;55563;52.416;13.548;2022-11-18T01:01:47;99934.72;;;0.78;100.00
68594;BME280;55563;52.416;13.548;2022-11-18T01:03:52;99937.13;;;0.73;100.00
68594;BME280;55563;52.416;13.548;2022-11-18T01:05:56;99936.34;;;0.73;100.00
68594;BME280;55563;52.416;13.548;2022-11-18T01:07:59;99932.75;;;0.74;100.00
68594;BME280;55563;52.416;13.548;2022-11-18T01:10:39;99938.94;;;0.73;100.00
68594;BME280;55563;52.416;13.548;2022-11-18T01:17:50;99941.94;;;0.70;100.00
68594;BME280;55563;52.416;13.548;2022-11-18T01:51:57;99956.78;;;0.56;100.00
68594;BME280;55563;52.416;13.548;2022-11-18T01:59:34;99952.06;;;0.47;100.00
68594;BME280;55563;52.416;13.548;2022-11-18T02:07:24;99949.88;;;0.43;100.00
68594;BME280;55563;52.416;13.548;2022-11-18T02:25:00;99962.88;;;0.37;100.00
68594;BME280;55563;52.416;13.548;2022-11-18T02:28:29;99959.34;;;0.25;100.00
68594;BME280;55563;52.416;13.548;2022-11-18T02:30:52;99959.13;;;0.26;100.00
68594;BME280;55563;52.416;13.548;2022-11-18T02:33:09;99959.75;;;0.22;100.00
68594;BME280;55563;52.416;13.548;2022-11-18T02:35:33;99967.09;;;0.25;100.00
68594;BME280;55563;52.416;13.548;2022-11-18T02:37:53;99963.72;;;0.24;100.00
68594;BME280;55563;52.416;13.548;2022-11-18T02:40:21;99969.69;;;0.25;100.00
68594;BME280;55563;52.416;13.548;2022-11-18T02:42:34;99976.63;;;0.24;100.00
68594;BME280;55563;52.416;13.548;2022-11-18T02:44:45;99969.91;;;0.23;100.00
68594;BME280;55563;52.416;13.548;2022-11-18T02:46:55;99968.31;;;0.22;100.00
68594;BME280;55563;52.416;13.548;2022-11-18T02:49:13;99972.50;;;0.17;100.00
68594;BME280;55563;52.416;13.548;2022-11-18T02:51:28;99957.38;;;0.20;100.00
68594;BME280;55563;52.416;13.548;2022-11-18T02:54:03;99960.38;;;0.17;100.00
68594;BME280;55563;52.416;13.548;2022-11-18T02:56:26;99968.13;;;0.17;100.00
68594;BME280;55563;52.416;13.548;2022-11-18T02:59:06;99966.34;;;0.18;100.00
68594;BME280;55563;52.416;13.548;2022-11-18T03:01:36;99974.50;;;0.15;100.00
68594;BME280;55563;52.416;13.548;2022-11-18T03:03:42;99957.19;;;0.15;100.00
68594;BME280;55563;52.416;13.548;2022-11-18T03:05:49;99963.41;;;0.14;100.00
68594;BME280;55563;52.416;13.548;2022-11-18T03:08:05;99954.25;;;0.12;100.00
68594;BME280;55563;52.416;13.548;2022-11-18T03:10:13;99955.25;;;0.11;100.00
68594;BME280;55563;52.416;13.548;2022-11-18T03:17:01;99947.91;;;0.08;100.00
68594;BME280;55563;52.416;13.548;2022-11-18T03:19:09;99961.81;;;0.07;100.00
68594;BME280;55563;52.416;13.548;2022-11-18T03:21:23;99958.06;;;0.09;100.00
68594;BME280;55563;52.416;13.548;2022-11-18T03:23:54;99964.22;;;0.08;100.00
68594;BME280;55563;52.416;13.548;2022-11-18T03:26:02;99959.25;;;0.07;100.00
68594;BME280;55563;52.416;13.548;2022-11-18T03:28:29;99964.22;;;0.08;100.00
68594;BME280;55563;52.416;13.548;2022-11-18T03:30:30;99968.22;;;0.04;100.00
68594;BME280;55563;52.416;13.548;2022-11-18T03:32:37;99969.63;;;0.00;100.00
68594;BME280;55563;52.416;13.548;2022-11-18T03:34:45;99972.78;;;0.02;100.00
68594;BME280;55563;52.416;13.548;2022-11-18T03:36:49;99974.78;;;0.00;100.00
68594;BME280;55563;52.416;13.548;2022-11-18T03:38:55;99979.97;;;0.00;100.00
68594;BME280;55563;52.416;13.548;2022-11-18T03:41:00;99981.75;;;-0.01;100.00
68594;BME280;55563;52.416;13.548;2022-11-18T03:43:08;99980.34;;;-0.03;100.00
68594;BME280;55563;52.416;13.548;2022-11-18T03:45:22;99986.91;;;-0.01;100.00
68594;BME280;55563;52.416;13.548;2022-11-18T03:47:29;99981.75;;;-0.07;100.00
68594;BME280;55563;52.416;13.548;2022-11-18T03:49:36;99982.56;;;-0.07;100.00
68594;BME280;55563;52.416;13.548;2022-11-18T03:51:47;99992.28;;;-0.09;100.00
68594;BME280;55563;52.416;13.548;2022-11-18T03:53:55;99981.38;;;-0.11;100.00
68594;BME280;55563;52.416;13.548;2022-11-18T03:56:05;99987.72;;;-0.13;100.00
68594;BME280;55563;52.416;13.548;2022-11-18T03:58:17;99983.19;;;-0.18;100.00
68594;BME280;55563;52.416;13.548;2022-11-18T04:00:20;99989.34;;;-0.19;100.00
68594;BME280;55563;52.416;13.548;2022-11-18T04:02:22;99990.13;;;-0.18;100.00
68594;BME280;55563;52.416;13.548;2022-11-18T04:04:25;99999.84;;;-0.14;100.00
68594;BME280;55563;52.416;13.548;2022-11-18T04:06:42;100000.47;;;-0.18;100.00
68594;BME280;55563;52.416;13.548;2022-11-18T04:08:51;100002.66;;;-0.15;100.00
68594;BME280;55563;52.416;13.548;2022-11-18T04:10:58;100000.88;;;-0.21;100.00
68594;BME280;55563;52.416;13.548;2022-11-18T04:13:06;100004.06;;;-0.19;100.00
68594;BME280;55563;52.416;13.548;2022-11-18T04:15:09;100002.28;;;-0.25;100.00
68594;BME280;55563;52.416;13.548;2022-11-18T04:17:11;100009.63;;;-0.22;100.00
68594;BME280;55563;52.416;13.548;2022-11-18T04:19:12;100001.69;;;-0.27;100.00
68594;BME280;55563;52.416;13.548;2022-11-18T04:21:13;100008.06;;;-0.30;100.00
68594;BME280;55563;52.416;13.548;2022-11-18T04:23:14;100000.31;;;-0.36;100.00
68594;BME280;55563;52.416;13.548;2022-11-18T04:25:15;100012.44;;;-0.37;100.00
68594;BME280;55563;52.416;13.548;2022-11-18T04:27:16;100009.84;;;-0.37;100.00
68594;BME280;55563;52.416;13.548;2022-11-18T04:29:17;100011.84;;;-0.39;100.00
68594;BME280;55563;52.416;13.548;2022-11-18T04:31:17;100019.00;;;-0.41;100.00
68594;BME280;55563;52.416;13.548;2022-11-18T04:33:18;100021.16;;;-0.38;100.00
68594;BME280;55563;52.416;13.548;2022-11-18T04:35:19;100019.00;;;-0.41;100.00
68594;BME280;55563;52.416;13.548;2022-11-18T04:37:19;100016.81;;;-0.37;100.00
68594;BME280;55563;52.416;13.548;2022-11-18T04:39:21;100015.44;;;-0.40;100.00
68594;BME280;55563;52.416;13.548;2022-11-18T04:41:21;100028.94;;;-0.45;100.00
68594;BME280;55563;52.416;13.548;2022-11-18T04:43:42;100030.53;;;-0.43;100.00
68594;BME280;55563;52.416;13.548;2022-11-18T04:45:43;100030.72;;;-0.45;100.00
68594;BME280;55563;52.416;13.548;2022-11-18T04:47:43;100028.34;;;-0.47;100.00
68594;BME280;55563;52.416;13.548;2022-11-18T04:49:44;100030.91;;;-0.47;100.00
68594;BME280;55563;52.416;13.548;2022-11-18T04:51:45;100030.16;;;-0.54;100.00
68594;BME280;55563;52.416;13.548;2022-11-18T04:53:46;100031.94;;;-0.54;100.00
68594;BME280;55563;52.416;13.548;2022-11-18T04:55:47;100037.88;;;-0.60;100.00
68594;BME280;55563;52.416;13.548;2022-11-18T04:57:48;100035.69;;;-0.57;100.00
68594;BME280;55563;52.416;13.548;2022-11-18T04:59:48;100038.06;;;-0.62;100.00
68594;BME280;55563;52.416;13.548;2022-11-18T05:01:49;100045.03;;;-0.62;100.00
68594;BME280;55563;52.416;13.548;2022-11-18T05:03:50;100051.19;;;-0.63;100.00
68594;BME280;55563;52.416;13.548;2022-11-18T05:05:51;100047.81;;;-0.70;100.00
68594;BME280;55563;52.416;13.548;2022-11-18T05:07:52;100041.47;;;-0.68;100.00
68594;BME280;55563;52.416;13.548;2022-11-18T05:09:52;100047.03;;;-0.71;100.00
68594;BME280;55563;52.416;13.548;2022-11-18T05:11:53;100049.59;;;-0.71;100.00
68594;BME280;55563;52.416;13.548;2022-11-18T05:14:14;100041.66;;;-0.76;100.00
68594;BME280;55563;52.416;13.548;2022-11-18T05:16:14;100043.66;;;-0.78;100.00
68594;BME280;55563;52.416;13.548;2022-11-18T05:18:15;100038.69;;;-0.79;100.00
68594;BME280;55563;52.416;13.548;2022-11-18T05:20:16;100061.53;;;-0.83;100.00
68594;BME280;55563;52.416;13.548;2022-11-18T05:22:17;100052.56;;;-0.80;100.00
68594;BME280;55563;52.416;13.548;2022-11-18T05:24:18;100052.97;;;-0.83;100.00
68594;BME280;55563;52.416;13.548;2022-11-18T05:26:18;100053.97;;;-0.84;100.00
68594;BME280;55563;52.416;13.548;2022-11-18T05:28:19;100059.34;;;-0.79;100.00
68594;BME280;55563;52.416;13.548;2022-11-18T05:30:20;100053.41;;;-0.86;100.00
68594;BME280;55563;52.416;13.548;2022-11-18T05:32:21;100053.56;;;-0.81;100.00
68594;BME280;55563;52.416;13.548;2022-11-18T05:34:22;100057.97;;;-0.82;100.00
68594;BME280;55563;52.416;13.548;2022-11-18T05:36:22;100059.94;;;-0.77;100.00
68594;BME280;55563;52.416;13.548;2022-11-18T05:38:23;100061.72;;;-0.78;100.00
68594;BME280;55563;52.416;13.548;2022-11-18T05:40:24;100064.88;;;-0.76;100.00
68594;BME280;55563;52.416;13.548;2022-11-18T05:42:24;100067.88;;;-0.79;100.00
68594;BME280;55563;52.416;13.548;2022-11-18T05:44:45;100069.84;;;-0.74;100.00
68594;BME280;55563;52.416;13.548;2022-11-18T05:46:46;100069.84;;;-0.74;100.00
68594;BME280;55563;52.416;13.548;2022-11-18T05:48:46;100071.03;;;-0.70;100.00
68594;BME280;55563;52.416;13.548;2022-11-18T05:50:49;100084.34;;;-0.73;100.00
68594;BME280;55563;52.416;13.548;2022-11-18T05:52:50;100085.13;;;-0.73;100.00
68594;BME280;55563;52.416;13.548;2022-11-18T05:54:51;100076.78;;;-0.75;100.00
68594;BME280;55563;52.416;13.548;2022-11-18T05:56:52;100091.69;;;-0.70;100.00
68594;BME280;55563;52.416;13.548;2022-11-18T05:58:52;100091.28;;;-0.74;100.00
68594;BME280;55563;52.416;13.548;2022-11-18T06:00:54;100099.22;;;-0.75;100.00
68594;BME280;55563;52.416;13.548;2022-11-18T06:02:56;100088.09;;;-0.76;100.00
68594;BME280;55563;52.416;13.548;2022-11-18T06:05:01;100103.38;;;-0.81;100.00
68594;BME280;55563;52.416;13.548;2022-11-18T06:07:11;100095.84;;;-0.89;100.00
68594;BME280;55563;52.416;13.548;2022-11-18T06:09:15;100101.38;;;-0.85;100.00
68594;BME280;55563;52.416;13.548;2022-11-18T06:11:18;100102.19;;;-0.85;100.00
68594;BME280;55563;52.416;13.548;2022-11-18T06:13:23;100112.50;;;-0.85;100.00
68594;BME280;55563;52.416;13.548;2022-11-18T06:15:30;100113.09;;;-0.90;100.00
68594;BME280;55563;52.416;13.548;2022-11-18T06:17:40;100113.47;;;-0.86;100.00
68594;BME280;55563;52.416;13.548;2022-11-18T06:19:43;100122.25;;;-0.87;100.00
68594;BME280;55563;52.416;13.548;2022-11-18T06:21:45;100122.81;;;-0.92;100.00
68594;BME280;55563;52.416;13.548;2022-11-18T06:23:46;100127.19;;;-0.92;100.00
68594;BME280;55563;52.416;13.548;2022-11-18T06:25:47;100135.91;;;-0.93;100.00
68594;BME280;55563;52.416;13.548;2022-11-18T06:27:48;100129.16;;;-0.94;100.00
68594;BME280;55563;52.416;13.548;2022-11-18T06:29:50;100130.94;;;-0.95;100.00
68594;BME280;55563;52.416;13.548;2022-11-18T06:31:51;100143.03;;;-0.95;100.00
68594;BME280;55563;52.416;13.548;2022-11-18T06:33:52;100141.66;;;-0.98;100.00
68594;BME280;55563;52.416;13.548;2022-11-18T06:35:52;100135.91;;;-0.93;100.00
68594;BME280;55563;52.416;13.548;2022-11-18T06:37:53;100138.47;;;-1.00;100.00
68594;BME280;55563;52.416;13.548;2022-11-18T06:39:54;100147.97;;;-1.07;100.00
68594;BME280;55563;52.416;13.548;2022-11-18T06:41:55;100149.94;;;-1.09;100.00
68594;BME280;55563;52.416;13.548;2022-11-18T06:43:55;100146.38;;;-1.08;100.00
68594;BME280;55563;52.416;13.548;2022-11-18T06:45:58;100150.31;;;-1.18;100.00
68594;BME280;55563;52.416;13.548;2022-11-18T06:48:19;100152.72;;;-1.17;100.00
68594;BME280;55563;52.416;13.548;2022-11-18T06:50:20;100159.25;;;-1.14;100.00
68594;BME280;55563;52.416;13.548;2022-11-18T06:52:22;100159.25;;;-1.14;100.00
68594;BME280;55563;52.416;13.548;2022-11-18T06:54:22;100160.44;;;-1.17;100.00
68594;BME280;55563;52.416;13.548;2022-11-18T06:56:23;100167.75;;;-1.27;100.00
68594;BME280;55563;52.416;13.548;2022-11-18T06:58:24;100168.94;;;-1.29;100.00
68594;BME280;55563;52.416;13.548;2022-11-18T07:00:25;100171.28;;;-1.35;100.00
68594;BME280;55563;52.416;13.548;2022-11-18T07:02:25;100168.31;;;-1.32;100.00
68594;BME280;55563;52.416;13.548;2022-11-18T07:04:26;100177.84;;;-1.32;100.00
68594;BME280;55563;52.416;13.548;2022-11-18T07:06:29;100172.84;;;-1.34;100.00
68594;BME280;55563;52.416;13.548;2022-11-18T07:08:33;100179.03;;;-1.35;100.00
68594;BME280;55563;52.416;13.548;2022-11-18T07:10:34;100181.03;;;-1.30;100.00
68594;BME280;55563;52.416;13.548;2022-11-18T07:12:35;100183.97;;;-1.33;100.00
68594;BME280;55563;52.416;13.548;2022-11-18T07:14:35;100176.97;;;-1.46;100.00
68594;BME280;55563;52.416;13.548;2022-11-18T07:16:36;100188.09;;;-1.45;100.00
68594;BME280;55563;52.416;13.548;2022-11-18T07:18:38;100181.91;;;-1.51;100.00
68594;BME280;55563;52.416;13.548;2022-11-18T07:20:39;100188.03;;;-1.52;100.00
68594;BME280;55563;52.416;13.548;2022-11-18T07:22:40;100183.06;;;-1.53;100.00
68594;BME280;55563;52.416;13.548;2022-11-18T07:24:40;100183.50;;;-1.50;100.00
68594;BME280;55563;52.416;13.548;2022-11-18T07:26:42;100183.13;;;-1.47;100.00
68594;BME280;55563;52.416;13.548;2022-11-18T07:28:43;100186.31;;;-1.45;100.00
68594;BME280;55563;52.416;13.548;2022-11-18T07:30:44;100200.75;;;-1.44;100.00
68594;BME280;55563;52.416;13.548;2022-11-18T07:32:45;100197.66;;;-1.39;100.00
68594;BME280;55563;52.416;13.548;2022-11-18T07:34:45;100181.97;;;-1.38;100.00
68594;BME280;55563;52.416;13.548;2022-11-18T07:36:46;100195.06;;;-1.33;100.00
68594;BME280;55563;52.416;13.548;2022-11-18T07:38:47;100192.31;;;-1.31;100.00
68594;BME280;55563;52.416;13.548;2022-11-18T07:40:48;100191.13;;;-1.28;100.00
68594;BME280;55563;52.416;13.548;2022-11-18T07:42:49;100195.53;;;-1.22;100.00
68594;BME280;55563;52.416;13.548;2022-11-18T07:44:56;100186.41;;;-1.18;100.00
68594;BME280;55563;52.416;13.548;2022-11-18T07:46:57;100196.53;;;-1.17;100.00
68594;BME280;55563;52.416;13.548;2022-11-18T07:49:00;100198.94;;;-1.15;100.00
68594;BME280;55563;52.416;13.548;2022-11-18T07:51:01;100196.75;;;-1.12;100.00
68594;BME280;55563;52.416;13.548;2022-11-18T07:53:02;100206.69;;;-1.09;100.00
68594;BME280;55563;52.416;13.548;2022-11-18T07:55:03;100202.13;;;-1.07;100.00
68594;BME280;55563;52.416;13.548;2022-11-18T07:57:03;100203.13;;;-1.08;100.00
68594;BME280;55563;52.416;13.548;2022-11-18T07:59:04;100208.28;;;-1.08;100.00
68594;BME280;55563;52.416;13.548;2022-11-18T08:01:13;100224.94;;;-1.04;100.00
68594;BME280;55563;52.416;13.548;2022-11-18T08:03:14;100217.81;;;-1.02;100.00
68594;BME280;55563;52.416;13.548;2022-11-18T08:05:14;100217.44;;;-0.99;100.00
68594;BME280;55563;52.416;13.548;2022-11-18T08:07:15;100227.56;;;-0.97;100.00
68594;BME280;55563;52.416;13.548;2022-11-18T08:09:16;100214.22;;;-1.01;100.00
68594;BME280;55563;52.416;13.548;2022-11-18T08:11:18;100211.72;;;-0.88;100.00
68594;BME280;55563;52.416;13.548;2022-11-18T08:13:19;100231.34;;;-0.93;100.00
68594;BME280;55563;52.416;13.548;2022-11-18T08:15:19;100234.09;;;-0.95;100.00
68594;BME280;55563;52.416;13.548;2022-11-18T08:17:20;100237.28;;;-0.93;100.00
68594;BME280;55563;52.416;13.548;2022-11-18T08:19:21;100226.75;;;-0.91;100.00
68594;BME280;55563;52.416;13.548;2022-11-18T08:21:22;100230.97;;;-0.83;100.00
68594;BME280;55563;52.416;13.548;2022-11-18T08:23:23;100233.38;;;-0.82;100.00
68594;BME280;55563;52.416;13.548;2022-11-18T08:25:23;100241.47;;;-0.85;100.00
68594;BME280;55563;52.416;13.548;2022-11-18T08:27:24;100235.13;;;-0.89;100.00
68594;BME280;55563;52.416;13.548;2022-11-18T08:29:26;100238.47;;;-0.95;100.00
68594;BME280;55563;52.416;13.548;2022-11-18T08:31:28;100236.91;;;-0.90;100.00
68594;BME280;55563;52.416;13.548;2022-11-18T08:33:30;100240.31;;;-0.82;100.00
68594;BME280;55563;52.416;13.548;2022-11-18T08:35:31;100244.06;;;-0.85;100.00
68594;BME280;55563;52.416;13.548;2022-11-18T08:37:32;100245.06;;;-0.79;100.00
68594;BME280;55563;52.416;13.548;2022-11-18T08:39:33;100245.47;;;-0.82;100.00
68594;BME280;55563;52.416;13.548;2022-11-18T08:41:37;100247.25;;;-0.83;100.00
68594;BME280;55563;52.416;13.548;2022-11-18T08:43:39;100246.59;;;-0.98;100.00
68594;BME280;55563;52.416;13.548;2022-11-18T08:45:40;100252.38;;;-0.96;100.00
68594;BME280;55563;52.416;13.548;2022-11-18T08:47:41;100255.34;;;-0.93;100.00
68594;BME280;55563;52.416;13.548;2022-11-18T08:49:41;100260.13;;;-0.90;100.00
68594;BME280;55563;52.416;13.548;2022-11-18T08:51:42;100258.72;;;-0.85;100.00
68594;BME280;55563;52.416;13.548;2022-11-18T08:53:43;100261.72;;;-0.89;100.00
68594;BME280;55563;52.416;13.548;2022-11-18T08:55:44;100262.13;;;-0.85;100.00
68594;BME280;55563;52.416;13.548;2022-11-18T08:57:44;100271.63;;;-0.85;100.00
68594;BME280;55563;52.416;13.548;2022-11-18T08:59:47;100277.13;;;-1.02;100.00
68594;BME280;55563;52.416;13.548;2022-11-18T09:01:47;100282.06;;;-1.07;100.00
68594;BME280;55563;52.416;13.548;2022-11-18T09:03:48;100287.81;;;-1.11;100.00
68594;BME280;55563;52.416;13.548;2022-11-18T09:05:49;100296.13;;;-1.09;100.00
68594;BME280;55563;52.416;13.548;2022-11-18T09:07:50;100300.13;;;-1.07;100.00
68594;BME280;55563;52.416;13.548;2022-11-18T09:09:52;100307.81;;;-1.13;100.00
68594;BME280;55563;52.416;13.548;2022-11-18T09:11:53;100293.53;;;-1.16;100.00
68594;BME280;55563;52.416;13.548;2022-11-18T09:13:57;100296.53;;;-1.12;100.00
68594;BME280;55563;52.416;13.548;2022-11-18T09:15:58;100306.44;;;-1.09;100.00
68594;BME280;55563;52.416;13.548;2022-11-18T09:17:59;100304.66;;;-1.15;100.00
68594;BME280;55563;52.416;13.548;2022-11-18T09:20:01;100311.41;;;-1.08;100.00
68594;BME280;55563;52.416;13.548;2022-11-18T09:22:03;100317.31;;;-1.14;100.00
68594;BME280;55563;52.416;13.548;2022-11-18T09:24:04;100325.06;;;-1.14;100.00
68594;BME280;55563;52.416;13.548;2022-11-18T09:26:07;100321.28;;;-1.18;100.00
68594;BME280;55563;52.416;13.548;2022-11-18T09:28:08;100335.47;;;-1.28;100.00
68594;BME280;55563;52.416;13.548;2022-11-18T09:30:09;100333.84;;;-1.36;100.00
68594;BME280;55563;52.416;13.548;2022-11-18T09:32:10;100340.63;;;-1.35;100.00
68594;BME280;55563;52.416;13.548;2022-11-18T09:34:11;100341.66;;;-1.29;100.00
68594;BME280;55563;52.416;13.548;2022-11-18T09:36:18;100343.66;;;-1.25;100.00
68594;BME280;55563;52.416;13.548;2022-11-18T09:38:20;100347.81;;;-1.24;100.00
68594;BME280;55563;52.416;13.548;2022-11-18T09:40:21;100345.66;;;-1.20;100.00
68594;BME280;55563;52.416;13.548;2022-11-18T09:43:03;100339.72;;;-1.21;100.00
68594;BME280;55563;52.416;13.548;2022-11-18T09:51:38;100355.75;;;-1.25;100.00
68594;BME280;55563;52.416;13.548;2022-11-18T09:53:40;100353.72;;;-1.30;100.00
68594;BME280;55563;52.416;13.548;2022-11-18T09:55:45;100350.16;;;-1.29;100.00
68594;BME280;55563;52.416;13.548;2022-11-18T09:57:51;100353.34;;;-1.27;100.00
68594;BME280;55563;52.416;13.548;2022-11-18T09:59:55;100351.34;;;-1.32;100.00
68594;BME280;55563;52.416;13.548;2022-11-18T10:02:02;100367.22;;;-1.28;100.00
68594;BME280;55563;52.416;13.548;2022-11-18T10:04:13;100361.22;;;-1.35;100.00
68594;BME280;55563;52.416;13.548;2022-11-18T10:06:23;100363.81;;;-1.35;100.00
68594;BME280;55563;52.416;13.548;2022-11-18T10:08:31;100358.31;;;-1.25;100.00
68594;BME280;55563;52.416;13.548;2022-11-18T10:10:44;100365.81;;;-1.30;100.00
68594;BME280;55563;52.416;13.548;2022-11-18T10:12:56;100367.53;;;-1.38;100.00
68594;BME280;55563;52.416;13.548;2022-11-18T10:24:54;100372.38;;;-1.28;100.00
68594;BME280;55563;52.416;13.548;2022-11-18T10:26:58;100372.59;;;-1.23;100.00
68594;BME280;55563;52.416;13.548;2022-11-18T10:28:59;100374.59;;;-1.25;100.00
68594;BME280;55563;52.416;13.548;2022-11-18T10:31:05;100380.50;;;-1.24;100.00
68594;BME280;55563;52.416;13.548;2022-11-18T10:33:25;100373.78;;;-1.25;100.00
68594;BME280;55563;52.416;13.548;2022-11-18T10:35:33;100384.69;;;-1.23;100.00
68594;BME280;55563;52.416;13.548;2022-11-18T10:37:34;100377.19;;;-1.18;100.00
68594;BME280;55563;52.416;13.548;2022-11-18T10:39:55;100381.38;;;-1.17;100.00
68594;BME280;55563;52.416;13.548;2022-11-18T10:42:05;100379.94;;;-1.20;100.00
68594;BME280;55563;52.416;13.548;2022-11-18T10:46:43;100390.66;;;-1.23;100.00
68594;BME280;55563;52.416;13.548;2022-11-18T10:48:44;100387.66;;;-1.26;100.00
68594;BME280;55563;52.416;13.548;2022-11-18T10:50:47;100389.91;;;-1.17;100.00
68594;BME280;55563;52.416;13.548;2022-11-18T10:52:52;100403.38;;;-1.21;100.00
68594;BME280;55563;52.416;13.548;2022-11-18T10:57:24;100404.72;;;-1.25;100.00
68594;BME280;55563;52.416;13.548;2022-11-18T10:59:32;100397.47;;;-1.15;100.00
68594;BME280;55563;52.416;13.548;2022-11-18T11:01:34;100403.41;;;-1.15;100.00
68594;BME280;55563;52.416;13.548;2022-11-18T11:03:37;100398.06;;;-1.13;100.00
68594;BME280;55563;52.416;13.548;2022-11-18T11:05:38;100399.66;;;-1.12;100.00
68594;BME280;55563;52.416;13.548;2022-11-18T11:07:39;100400.63;;;-1.13;100.00
68594;BME280;55563;52.416;13.548;2022-11-18T11:09:40;100405.22;;;-1.09;100.00
68594;BME280;55563;52.416;13.548;2022-11-18T11:11:53;100401.50;;;-1.06;100.00
68594;BME280;55563;52.416;13.548;2022-11-18T11:14:01;100403.63;;;-1.10;100.00
68594;BME280;55563;52.416;13.548;2022-11-18T11:16:05;100407.00;;;-1.09;100.00
68594;BME280;55563;52.416;13.548;2022-11-18T11:18:25;100399.72;;;-1.06;100.00
68594;BME280;55563;52.416;13.548;2022-11-18T11:20:42;100406.25;;;-1.03;100.00
68594;BME280;55563;52.416;13.548;2022-11-18T11:22:44;100407.63;;;-1.07;100.00
68594;BME280;55563;52.416;13.548;2022-11-18T11:24:45;100403.91;;;-0.98;100.00
68594;BME280;55563;52.416;13.548;2022-11-18T11:27:03;100417.19;;;-1.01;100.00
68594;BME280;55563;52.416;13.548;2022-11-18T11:31:52;100405.31;;;-0.96;100.00
68594;BME280;55563;52.416;13.548;2022-11-18T11:34:34;100414.25;;;-0.98;100.00
68594;BME280;55563;52.416;13.548;2022-11-18T11:36:49;100411.47;;;-0.97;100.00
68594;BME280;55563;52.416;13.548;2022-11-18T11:49:09;100421.25;;;-0.85;100.00
68594;BME280;55563;52.416;13.548;2022-11-18T11:51:33;100413.72;;;-0.87;100.00
68594;BME280;55563;52.416;13.548;2022-11-18T11:56:33;100427.25;;;-0.78;100.00
68594;BME280;55563;52.416;13.548;2022-11-18T11:59:07;100420.13;;;-0.76;100.00
68594;BME280;55563;52.416;13.548;2022-11-18T12:06:14;100428.88;;;-0.77;100.00
68594;BME280;55563;52.416;13.548;2022-11-18T12:08:20;100425.47;;;-0.78;100.00
68594;BME280;55563;52.416;13.548;2022-11-18T12:10:49;100435.25;;;-0.73;100.00
68594;BME280;55563;52.416;13.548;2022-11-18T12:15:57;100435.81;;;-0.78;100.00
68594;BME280;55563;52.416;13.548;2022-11-18T12:20:48;100442.41;;;-0.69;100.00
68594;BME280;55563;52.416;13.548;2022-11-18T12:23:10;100441.84;;;-0.64;100.00
68594;BME280;55563;52.416;13.548;2022-11-18T12:27:59;100440.47;;;-0.60;100.00
68594;BME280;55563;52.416;13.548;2022-11-18T12:30:01;100450.00;;;-0.61;100.00
68594;BME280;55563;52.416;13.548;2022-11-18T12:32:37;100464.69;;;-0.61;100.00
68594;BME280;55563;52.416;13.548;2022-11-18T12:34:39;100474.53;;;-0.71;100.00
68594;BME280;55563;52.416;13.548;2022-11-18T12:36:41;100462.66;;;-0.66;100.00
68594;BME280;55563;52.416;13.548;2022-11-18T12:38:42;100464.09;;;-0.63;100.00
68594;BME280;55563;52.416;13.548;2022-11-18T12:40:44;100460.53;;;-0.56;100.00
68594;BME280;55563;52.416;13.548;2022-11-18T12:42:46;100454.97;;;-0.59;100.00
68594;BME280;55563;52.416;13.548;2022-11-18T12:47:55;100461.88;;;-0.66;100.00
68594;BME280;55563;52.416;13.548;2022-11-18T12:50:12;100458.94;;;-0.57;99.71
68594;BME280;55563;52.416;13.548;2022-11-18T12:54:43;100458.91;;;-0.63;98.59
68594;BME280;55563;52.416;13.548;2022-11-18T12:56:47;100461.63;;;-0.71;97.47